Terminal Aerodrome Forecast
Issued by NWS Atlanta, GA

Home | Current Version | Previous Version | Text Only | Print | Product List | Glossary On
Versions: 1 2 3 4 5 6 7 8 9 10 11 12 13 14 15 16 17 18 19 20 21
000
FTUS42 KFFC 192320
TAFCSG
TAF
KCSG 192320Z 2000/2024 18008KT P6SM VCSH SCT040 BKN100 OVC250
     FM200300 19010KT P6SM -SHRA SCT010 OVC030
     FM200500 19010KT 4SM SHRA BKN007 OVC025
     FM200900 19008KT 3SM BR OVC007
     FM201600 22008KT P6SM SCT010 BKN025
     FM201900 24010KT P6SM SCT030 BKN250=

USA.gov is the U.S. government's official web portal to all federal, state and local government web resources and services.